Time;durP1;ratioP1;P1;durP2;ratioP2;P2;SDS_P1;SDS_P2;PMS_P1;PMS_P2;Temp;Humidity;BMP_temperature;BMP_pressure;BME280_temperature;BME280_humidity;BME280_pressure;Samples;Min_cycle;Max_cycle;Signal;HPM_P1;HPM_P2
2021/01/21 00:00:31;;;;;;;18.47;13.17;;;;;;;;;;5064900;28;20469;-68
2021/01/21 00:02:58;;;;;;;19.70;12.83;;;;;;;;;;5067915;28;20878;-67
2021/01/21 00:05:25;;;;;;;16.70;12.07;;;;;;;;;;5072095;28;20441;-68
2021/01/21 00:07:51;;;;;;;17.27;12.60;;;;;;;;;;5068615;28;21017;-68
2021/01/21 00:10:18;;;;;;;19.37;13.67;;;;;;;;;;5062413;28;20481;-67
2021/01/21 00:12:45;;;;;;;18.40;12.97;;;;;;;;;;5070983;28;21168;-68
2021/01/21 00:15:11;;;;;;;18.43;13.40;;;;;;;;;;5067647;28;20458;-67
2021/01/21 00:17:38;;;;;;;16.67;11.60;;;;;;;;;;5065481;28;20468;-67
2021/01/21 00:20:06;;;;;;;22.13;13.93;;;;;;;;;;5065215;28;20465;-69
2021/01/21 00:22:33;;;;;;;18.80;12.87;;;;;;;;;;5064404;28;20946;-68
2021/01/21 00:24:59;;;;;;;21.93;15.13;;;;;;;;;;5062130;28;20457;-67
2021/01/21 00:27:26;;;;;;;19.20;12.87;;;;;;;;;;5061503;28;20451;-66
2021/01/21 00:29:53;;;;;;;17.80;13.83;;;;;;;;;;5061305;28;20454;-67
2021/01/21 00:32:19;;;;;;;21.70;14.60;;;;;;;;;;5061289;28;20480;-69
2021/01/21 00:34:46;;;;;;;17.60;14.37;;;;;;;;;;5064047;28;20457;-66
2021/01/21 00:37:13;;;;;;;19.83;14.50;;;;;;;;;;5072518;28;20448;-68
2021/01/21 00:39:40;;;;;;;19.53;14.80;;;;;;;;;;5057284;28;20472;-67
2021/01/21 00:42:07;;;;;;;20.07;14.30;;;;;;;;;;5069187;28;20833;-67
2021/01/21 00:44:33;;;;;;;17.03;13.63;;;;;;;;;;5065724;28;20467;-68
2021/01/21 00:47:00;;;;;;;21.97;15.60;;;;;;;;;;5068415;28;20446;-68
2021/01/21 00:49:26;;;;;;;22.43;14.33;;;;;;;;;;5065728;28;20822;-68
2021/01/21 00:51:53;;;;;;;23.10;14.87;;;;;;;;;;5063838;28;20477;-68
2021/01/21 00:54:20;;;;;;;22.10;14.80;;;;;;;;;;5060363;28;20460;-67
2021/01/21 00:56:47;;;;;;;18.60;13.27;;;;;;;;;;5071756;28;20449;-67
2021/01/21 00:59:14;;;;;;;21.77;13.50;;;;;;;;;;5066065;28;20461;-68
2021/01/21 01:01:40;;;;;;;23.90;14.50;;;;;;;;;;5062150;28;20468;-67
2021/01/21 01:04:07;;;;;;;22.03;15.03;;;;;;;;;;5067432;28;20452;-67
2021/01/21 01:06:33;;;;;;;20.00;13.67;;;;;;;;;;5062944;28;20450;-67
2021/01/21 01:09:00;;;;;;;22.50;15.57;;;;;;;;;;5060946;28;20484;-67
2021/01/21 01:11:27;;;;;;;26.57;16.47;;;;;;;;;;5064203;28;20496;-68
2021/01/21 01:13:54;;;;;;;21.80;14.57;;;;;;;;;;5061154;28;20495;-67
2021/01/21 01:16:20;;;;;;;22.50;13.83;;;;;;;;;;5063300;28;20465;-68
2021/01/21 01:18:47;;;;;;;20.37;15.93;;;;;;;;;;5066041;28;22298;-67
2021/01/21 01:21:14;;;;;;;24.17;16.73;;;;;;;;;;5059452;28;20466;-68
2021/01/21 01:23:40;;;;;;;18.87;15.10;;;;;;;;;;5065759;28;20528;-67
2021/01/21 01:26:07;;;;;;;20.93;15.27;;;;;;;;;;5063183;28;20489;-67
2021/01/21 01:28:34;;;;;;;21.10;15.00;;;;;;;;;;5065304;28;20456;-67
2021/01/21 01:31:01;;;;;;;21.90;15.67;;;;;;;;;;5055539;28;20484;-67
2021/01/21 01:33:27;;;;;;;23.00;16.23;;;;;;;;;;5064489;28;20533;-67
2021/01/21 01:35:54;;;;;;;23.10;16.30;;;;;;;;;;5062900;28;20453;-67
2021/01/21 01:38:21;;;;;;;22.37;15.97;;;;;;;;;;5064489;28;20458;-67
2021/01/21 01:40:47;;;;;;;22.60;16.30;;;;;;;;;;5064302;28;20469;-68
2021/01/21 01:43:14;;;;;;;26.60;16.77;;;;;;;;;;5062001;28;21021;-68
2021/01/21 01:45:41;;;;;;;22.23;15.93;;;;;;;;;;5057468;28;20456;-68
2021/01/21 01:48:08;;;;;;;26.70;17.10;;;;;;;;;;5056053;28;20843;-67
2021/01/21 01:50:35;;;;;;;26.03;17.57;;;;;;;;;;5069075;28;20467;-67
2021/01/21 01:53:01;;;;;;;24.50;15.57;;;;;;;;;;5065412;28;20490;-67
2021/01/21 01:55:28;;;;;;;18.93;14.13;;;;;;;;;;5060728;28;20503;-68
2021/01/21 01:57:55;;;;;;;20.53;14.60;;;;;;;;;;5058634;28;20453;-67
2021/01/21 02:00:22;;;;;;;26.43;17.97;;;;;;;;;;5065429;28;20477;-67
2021/01/21 02:02:50;;;;;;;22.90;15.50;;;;;;;;;;5058242;28;20818;-68
2021/01/21 02:05:17;;;;;;;29.30;17.73;;;;;;;;;;5055437;28;20465;-67
2021/01/21 02:07:43;;;;;;;24.63;17.50;;;;;;;;;;5056304;28;20462;-67
2021/01/21 02:10:11;;;;;;;20.97;14.03;;;;;;;;;;5061146;28;20481;-66
2021/01/21 02:12:43;;;;;;;25.23;16.80;;;;;;;;;;5056836;28;20486;-67
2021/01/21 02:15:14;;;;;;;22.57;15.57;;;;;;;;;;5061388;28;20445;-67
2021/01/21 02:17:46;;;;;;;19.30;15.47;;;;;;;;;;5063827;28;20466;-67
2021/01/21 02:20:24;;;;;;;24.83;15.97;;;;;;;;;;5065697;28;20466;-68
2021/01/21 02:23:20;;;;;;;24.03;15.40;;;;;;;;;;5065318;28;20445;-67
2021/01/21 02:25:48;;;;;;;20.60;14.93;;;;;;;;;;5069724;28;20443;-66
2021/01/21 02:28:26;;;;;;;23.50;17.57;;;;;;;;;;5069226;28;21339;-67
2021/01/21 02:31:00;;;;;;;18.87;14.20;;;;;;;;;;5062714;28;21033;-67
2021/01/21 02:33:30;;;;;;;25.10;15.53;;;;;;;;;;5060903;28;20539;-66
2021/01/21 02:35:59;;;;;;;18.77;14.43;;;;;;;;;;5059868;28;20444;-67
2021/01/21 02:38:26;;;;;;;20.30;14.70;;;;;;;;;;5067340;28;20842;-67
2021/01/21 02:40:53;;;;;;;21.57;14.80;;;;;;;;;;5064288;28;20983;-67
2021/01/21 02:43:20;;;;;;;20.87;15.67;;;;;;;;;;5068663;28;20502;-67
2021/01/21 02:45:46;;;;;;;24.50;15.47;;;;;;;;;;5066819;28;20451;-67
2021/01/21 02:48:13;;;;;;;20.87;14.73;;;;;;;;;;5057596;28;20452;-67
2021/01/21 02:50:40;;;;;;;21.40;16.00;;;;;;;;;;5065048;28;20469;-66
2021/01/21 02:53:07;;;;;;;19.83;14.60;;;;;;;;;;5055929;28;20689;-67
2021/01/21 02:55:38;;;;;;;21.57;14.50;;;;;;;;;;5060831;28;20527;-67
2021/01/21 02:58:07;;;;;;;20.30;15.43;;;;;;;;;;5056987;28;20440;-67
2021/01/21 03:00:34;;;;;;;22.80;15.07;;;;;;;;;;5069185;28;20493;-68
2021/01/21 03:03:01;;;;;;;18.83;14.30;;;;;;;;;;5062357;28;20449;-67
2021/01/21 03:05:29;;;;;;;19.30;16.00;;;;;;;;;;5069088;28;20459;-70
2021/01/21 03:07:56;;;;;;;21.87;14.90;;;;;;;;;;5069005;28;20471;-67
2021/01/21 03:10:24;;;;;;;21.90;15.40;;;;;;;;;;5065397;28;20488;-66
2021/01/21 03:12:54;;;;;;;22.77;16.10;;;;;;;;;;5061187;28;20485;-67
2021/01/21 03:15:21;;;;;;;21.67;15.73;;;;;;;;;;5053291;28;20481;-66
2021/01/21 03:17:48;;;;;;;17.67;13.63;;;;;;;;;;5063311;28;21046;-67
2021/01/21 03:20:15;;;;;;;21.30;14.93;;;;;;;;;;5060296;28;20473;-67
2021/01/21 03:22:42;;;;;;;23.23;14.90;;;;;;;;;;5065856;28;20460;-66
2021/01/21 03:25:09;;;;;;;23.10;15.37;;;;;;;;;;5064773;28;20445;-66
2021/01/21 03:27:36;;;;;;;20.23;15.90;;;;;;;;;;5065012;28;20461;-67
2021/01/21 03:30:03;;;;;;;18.73;14.07;;;;;;;;;;5066628;28;20450;-67
2021/01/21 03:32:30;;;;;;;21.23;16.00;;;;;;;;;;5061954;28;20493;-67
2021/01/21 03:34:57;;;;;;;24.33;17.10;;;;;;;;;;5067557;28;20461;-66
2021/01/21 03:37:23;;;;;;;22.97;15.93;;;;;;;;;;5059096;28;20470;-67
2021/01/21 03:39:50;;;;;;;23.63;16.13;;;;;;;;;;5060635;28;20949;-68
2021/01/21 03:42:17;;;;;;;19.43;14.80;;;;;;;;;;5064288;28;20460;-67
2021/01/21 03:44:44;;;;;;;25.03;15.50;;;;;;;;;;5063640;28;20449;-68
2021/01/21 03:47:11;;;;;;;20.67;14.90;;;;;;;;;;5059959;28;20457;-67
2021/01/21 03:49:37;;;;;;;21.50;15.30;;;;;;;;;;5061865;28;20461;-67
2021/01/21 03:52:04;;;;;;;20.90;15.70;;;;;;;;;;5064068;28;21453;-68
2021/01/21 03:54:30;;;;;;;20.03;15.47;;;;;;;;;;5071871;28;20995;-67
2021/01/21 03:56:57;;;;;;;23.33;15.30;;;;;;;;;;5064420;28;20554;-66
2021/01/21 03:59:24;;;;;;;18.67;13.70;;;;;;;;;;5057885;28;20486;-67
2021/01/21 04:01:51;;;;;;;23.17;15.10;;;;;;;;;;5067042;28;20473;-67
2021/01/21 04:04:18;;;;;;;21.87;16.07;;;;;;;;;;5056787;28;20462;-68
2021/01/21 04:06:44;;;;;;;19.53;14.47;;;;;;;;;;5066882;28;20457;-66
2021/01/21 04:09:11;;;;;;;18.93;14.20;;;;;;;;;;5068396;28;20851;-67
2021/01/21 04:11:37;;;;;;;17.67;13.33;;;;;;;;;;5067226;28;20487;-66
2021/01/21 04:14:04;;;;;;;17.13;13.37;;;;;;;;;;5063547;28;20442;-66
2021/01/21 04:16:31;;;;;;;21.83;14.33;;;;;;;;;;5055654;28;20461;-67
2021/01/21 04:18:58;;;;;;;18.10;14.00;;;;;;;;;;5055498;28;20461;-67
2021/01/21 04:21:25;;;;;;;21.10;13.13;;;;;;;;;;5060105;28;20477;-67
2021/01/21 04:23:54;;;;;;;20.90;13.97;;;;;;;;;;5061360;28;20459;-67
2021/01/21 04:26:21;;;;;;;18.23;13.10;;;;;;;;;;5063021;28;20453;-66
2021/01/21 04:28:47;;;;;;;20.23;14.03;;;;;;;;;;5064378;28;20882;-66
2021/01/21 04:31:14;;;;;;;19.97;15.00;;;;;;;;;;5069677;28;20465;-67
2021/01/21 04:33:41;;;;;;;25.33;14.20;;;;;;;;;;5063285;28;20480;-67
2021/01/21 04:36:08;;;;;;;20.30;14.17;;;;;;;;;;5065827;28;20800;-67
2021/01/21 04:38:35;;;;;;;18.33;12.70;;;;;;;;;;5063574;28;20972;-67
2021/01/21 04:41:02;;;;;;;19.80;13.33;;;;;;;;;;5064187;28;20465;-66
2021/01/21 04:43:28;;;;;;;21.83;14.17;;;;;;;;;;5066529;28;20520;-67
2021/01/21 04:45:56;;;;;;;21.13;14.60;;;;;;;;;;5072830;28;20455;-66
2021/01/21 04:48:22;;;;;;;19.70;13.50;;;;;;;;;;5062744;28;20468;-67
2021/01/21 04:50:49;;;;;;;19.07;13.80;;;;;;;;;;5067907;28;20468;-66
2021/01/21 04:53:20;;;;;;;17.10;13.13;;;;;;;;;;5064496;28;20532;-67
2021/01/21 04:55:48;;;;;;;20.70;13.97;;;;;;;;;;5063340;28;20459;-67
2021/01/21 04:58:17;;;;;;;18.20;13.57;;;;;;;;;;5064991;28;20457;-67
2021/01/21 05:00:44;;;;;;;18.70;13.20;;;;;;;;;;5059540;28;20529;-66
2021/01/21 05:03:12;;;;;;;16.30;12.77;;;;;;;;;;5055482;28;20528;-67
2021/01/21 05:05:39;;;;;;;19.83;13.07;;;;;;;;;;5059026;28;20530;-66
2021/01/21 05:08:06;;;;;;;15.93;11.53;;;;;;;;;;5049656;28;20500;-67
2021/01/21 05:10:34;;;;;;;18.50;11.97;;;;;;;;;;5051680;28;20504;-66
2021/01/21 05:13:01;;;;;;;18.53;13.50;;;;;;;;;;5059359;28;20488;-65
2021/01/21 05:15:27;;;;;;;16.57;12.30;;;;;;;;;;5059173;28;20449;-66
2021/01/21 05:17:54;;;;;;;15.17;11.07;;;;;;;;;;5053048;28;20458;-67
2021/01/21 05:20:23;;;;;;;13.67;10.57;;;;;;;;;;5059559;28;20479;-67
2021/01/21 05:22:50;;;;;;;16.00;10.33;;;;;;;;;;5061097;28;20832;-66
2021/01/21 05:25:18;;;;;;;16.63;11.00;;;;;;;;;;5067112;28;20461;-67
2021/01/21 05:27:46;;;;;;;14.30;10.00;;;;;;;;;;5064464;28;20462;-67
2021/01/21 05:30:15;;;;;;;15.30;10.57;;;;;;;;;;5067279;28;20472;-67
2021/01/21 05:32:41;;;;;;;11.80;9.33;;;;;;;;;;5061155;28;20485;-68
2021/01/21 05:35:09;;;;;;;14.30;10.70;;;;;;;;;;5066078;28;20824;-67
2021/01/21 05:37:38;;;;;;;16.07;11.70;;;;;;;;;;5058116;28;20523;-68
2021/01/21 05:40:07;;;;;;;15.37;9.90;;;;;;;;;;5066314;28;20441;-65
2021/01/21 05:42:36;;;;;;;16.03;10.37;;;;;;;;;;5063505;28;20445;-66
2021/01/21 05:45:04;;;;;;;11.90;10.03;;;;;;;;;;5053694;28;20462;-67
2021/01/21 05:47:31;;;;;;;12.10;9.97;;;;;;;;;;5055302;28;20449;-67
2021/01/21 05:49:57;;;;;;;13.87;10.83;;;;;;;;;;5060122;28;20452;-67
2021/01/21 05:52:25;;;;;;;14.60;10.50;;;;;;;;;;5056373;28;20484;-66
2021/01/21 05:54:52;;;;;;;14.70;11.20;;;;;;;;;;5055372;28;21138;-67
2021/01/21 05:57:19;;;;;;;14.80;9.57;;;;;;;;;;5054621;28;20466;-69
2021/01/21 05:59:47;;;;;;;14.40;10.90;;;;;;;;;;5056582;28;20457;-68
2021/01/21 06:02:15;;;;;;;13.20;11.30;;;;;;;;;;5047260;28;20987;-68
2021/01/21 06:04:42;;;;;;;17.43;11.60;;;;;;;;;;5053449;28;20973;-69
2021/01/21 06:07:10;;;;;;;13.07;10.27;;;;;;;;;;5051973;28;20534;-68
2021/01/21 06:09:38;;;;;;;13.30;9.90;;;;;;;;;;5054218;28;20453;-68
2021/01/21 06:12:05;;;;;;;11.87;10.17;;;;;;;;;;5055035;28;20478;-69
2021/01/21 06:14:32;;;;;;;12.90;10.13;;;;;;;;;;5057066;28;20461;-68
2021/01/21 06:16:59;;;;;;;14.47;10.93;;;;;;;;;;5054340;28;20465;-67
2021/01/21 06:19:26;;;;;;;14.83;10.30;;;;;;;;;;5055176;28;21154;-68
2021/01/21 06:21:55;;;;;;;16.50;10.93;;;;;;;;;;5059216;28;20473;-68
2021/01/21 06:24:27;;;;;;;16.30;11.40;;;;;;;;;;5060473;28;20457;-68
2021/01/21 06:26:54;;;;;;;18.87;12.37;;;;;;;;;;5056289;28;21091;-68
2021/01/21 06:29:21;;;;;;;17.97;12.27;;;;;;;;;;5061143;28;20452;-70
2021/01/21 06:31:49;;;;;;;17.17;11.67;;;;;;;;;;5055983;28;20479;-66
2021/01/21 06:34:17;;;;;;;15.40;11.70;;;;;;;;;;5064587;28;20444;-67
2021/01/21 06:36:48;;;;;;;15.87;10.90;;;;;;;;;;5062881;28;20452;-65
2021/01/21 06:39:18;;;;;;;17.23;10.70;;;;;;;;;;5063087;28;20464;-66
2021/01/21 06:41:46;;;;;;;17.03;11.40;;;;;;;;;;5058564;28;21837;-67
2021/01/21 06:44:14;;;;;;;18.20;11.70;;;;;;;;;;5063164;28;20445;-68
2021/01/21 06:46:41;;;;;;;15.00;11.20;;;;;;;;;;5058956;28;20451;-66
2021/01/21 06:49:07;;;;;;;17.87;10.00;;;;;;;;;;5066756;28;20461;-67
2021/01/21 06:51:35;;;;;;;14.57;9.47;;;;;;;;;;5058935;28;20492;-68
2021/01/21 06:54:02;;;;;;;13.43;9.50;;;;;;;;;;5065023;28;20460;-67
2021/01/21 06:56:31;;;;;;;14.30;9.97;;;;;;;;;;5066648;28;20497;-67
2021/01/21 06:58:58;;;;;;;19.13;11.03;;;;;;;;;;5061476;28;20514;-66
2021/01/21 07:01:39;;;;;;;14.17;11.07;;;;;;;;;;5060920;28;20461;-66
2021/01/21 07:04:21;;;;;;;16.33;11.37;;;;;;;;;;5064787;28;20472;-67
2021/01/21 07:07:00;;;;;;;12.80;9.70;;;;;;;;;;5053914;28;20956;-67
2021/01/21 07:09:27;;;;;;;13.27;8.60;;;;;;;;;;5062494;28;20464;-67
2021/01/21 07:11:55;;;;;;;14.10;9.03;;;;;;;;;;5057309;28;20955;-66
2021/01/21 07:14:22;;;;;;;10.73;8.47;;;;;;;;;;5056311;28;20461;-67
2021/01/21 07:16:50;;;;;;;14.47;10.03;;;;;;;;;;5056778;28;20991;-67
2021/01/21 07:19:16;;;;;;;14.37;9.00;;;;;;;;;;5068362;28;20468;-66
2021/01/21 07:21:52;;;;;;;9.00;7.87;;;;;;;;;;5067050;28;21033;-65
2021/01/21 07:24:22;;;;;;;11.60;6.93;;;;;;;;;;5063194;28;20440;-65
2021/01/21 07:26:51;;;;;;;11.17;8.40;;;;;;;;;;5063241;28;20832;-69
2021/01/21 07:29:19;;;;;;;11.53;8.07;;;;;;;;;;5065376;28;20487;-66
2021/01/21 07:32:04;;;;;;;10.17;6.83;;;;;;;;;;5063452;28;20480;-67
2021/01/21 07:34:38;;;;;;;8.87;6.13;;;;;;;;;;5066327;28;20982;-66
2021/01/21 07:37:32;;;;;;;10.40;6.90;;;;;;;;;;5068261;28;20460;-67
2021/01/21 07:40:04;;;;;;;9.63;7.30;;;;;;;;;;5066242;28;20465;-67
2021/01/21 07:42:50;;;;;;;7.53;5.97;;;;;;;;;;5067558;28;20455;-66
2021/01/21 07:45:44;;;;;;;10.23;6.27;;;;;;;;;;5061044;28;20501;-66
2021/01/21 07:48:24;;;;;;;8.53;6.10;;;;;;;;;;5066098;28;20445;-66
2021/01/21 07:50:51;;;;;;;9.93;5.97;;;;;;;;;;5062396;28;20831;-66
2021/01/21 07:53:19;;;;;;;8.63;5.83;;;;;;;;;;5063211;28;20770;-67
2021/01/21 07:55:46;;;;;;;7.33;5.50;;;;;;;;;;5068505;28;20448;-68
2021/01/21 07:58:17;;;;;;;12.03;6.10;;;;;;;;;;5061882;28;21099;-68
2021/01/21 08:00:45;;;;;;;6.73;6.00;;;;;;;;;;5064287;28;20469;-66
2021/01/21 08:03:11;;;;;;;6.20;5.20;;;;;;;;;;5070165;28;20442;-66
2021/01/21 08:05:38;;;;;;;7.03;5.30;;;;;;;;;;5065333;28;20996;-66
2021/01/21 08:08:05;;;;;;;11.97;6.70;;;;;;;;;;5062211;28;20472;-67
2021/01/21 08:10:33;;;;;;;7.17;4.80;;;;;;;;;;5065181;28;20503;-65
2021/01/21 08:13:00;;;;;;;6.10;5.00;;;;;;;;;;5072098;28;20610;-66
2021/01/21 08:15:28;;;;;;;9.43;5.97;;;;;;;;;;5061155;28;20449;-67
2021/01/21 08:17:55;;;;;;;6.03;4.37;;;;;;;;;;5058129;28;20457;-66
2021/01/21 08:20:23;;;;;;;7.27;4.50;;;;;;;;;;5062405;28;20489;-67
2021/01/21 08:22:54;;;;;;;6.60;4.57;;;;;;;;;;5053077;28;20460;-67
2021/01/21 08:25:20;;;;;;;6.33;4.67;;;;;;;;;;5064507;28;20445;-66
2021/01/21 08:27:48;;;;;;;5.53;3.87;;;;;;;;;;5055499;28;20454;-66
2021/01/21 08:30:15;;;;;;;4.63;4.20;;;;;;;;;;5061870;28;20466;-67
2021/01/21 08:32:44;;;;;;;5.60;4.10;;;;;;;;;;5064683;28;20541;-66
2021/01/21 08:35:11;;;;;;;7.43;5.07;;;;;;;;;;5056816;28;20465;-67
2021/01/21 08:37:39;;;;;;;6.60;4.40;;;;;;;;;;5061908;28;20885;-67
2021/01/21 08:40:06;;;;;;;4.90;3.67;;;;;;;;;;5059890;28;20449;-66
2021/01/21 08:42:33;;;;;;;5.63;4.23;;;;;;;;;;5063827;28;20953;-67
2021/01/21 08:45:00;;;;;;;5.77;4.50;;;;;;;;;;5064822;28;20454;-68
2021/01/21 08:47:28;;;;;;;14.90;4.03;;;;;;;;;;5058057;28;20495;-67
2021/01/21 08:49:55;;;;;;;6.73;3.83;;;;;;;;;;5064217;28;20873;-67
2021/01/21 08:52:22;;;;;;;6.70;4.10;;;;;;;;;;5064397;28;20481;-67
2021/01/21 08:54:52;;;;;;;5.07;4.03;;;;;;;;;;5066363;28;20494;-67
2021/01/21 08:57:20;;;;;;;5.27;3.80;;;;;;;;;;5053357;28;20835;-68
2021/01/21 08:59:47;;;;;;;6.33;3.90;;;;;;;;;;5063324;28;20590;-67
2021/01/21 09:02:13;;;;;;;14.50;5.73;;;;;;;;;;5062525;28;20456;-66
2021/01/21 09:04:41;;;;;;;7.63;3.90;;;;;;;;;;5053357;28;20442;-66
2021/01/21 09:07:10;;;;;;;4.90;4.00;;;;;;;;;;5060104;28;20466;-67
2021/01/21 09:09:37;;;;;;;6.03;4.23;;;;;;;;;;5063888;28;20489;-67
2021/01/21 09:12:17;;;;;;;5.53;4.57;;;;;;;;;;5061866;28;20483;-66
2021/01/21 09:14:44;;;;;;;5.60;4.13;;;;;;;;;;5062441;28;20452;-68
2021/01/21 09:17:14;;;;;;;7.53;5.10;;;;;;;;;;5060273;28;21187;-67
2021/01/21 09:19:42;;;;;;;9.40;4.77;;;;;;;;;;5062378;28;20457;-67
2021/01/21 09:22:09;;;;;;;5.93;3.90;;;;;;;;;;5061088;28;20948;-67
2021/01/21 09:24:55;;;;;;;9.40;5.13;;;;;;;;;;5061415;28;20502;-68
2021/01/21 09:27:22;;;;;;;7.80;4.80;;;;;;;;;;5058537;28;20452;-68
2021/01/21 09:29:50;;;;;;;5.50;4.63;;;;;;;;;;5059706;28;20465;-68
2021/01/21 09:32:17;;;;;;;5.80;5.20;;;;;;;;;;5059828;28;20826;-68
2021/01/21 09:34:57;;;;;;;5.90;5.17;;;;;;;;;;5054298;28;20525;-67
2021/01/21 09:37:25;;;;;;;6.47;5.13;;;;;;;;;;5064946;28;20465;-67
2021/01/21 09:39:53;;;;;;;7.00;4.60;;;;;;;;;;5060922;28;20464;-67
2021/01/21 09:42:20;;;;;;;8.57;4.70;;;;;;;;;;5052226;28;21100;-68
2021/01/21 09:44:46;;;;;;;6.93;5.30;;;;;;;;;;5054097;28;21085;-67
2021/01/21 09:47:13;;;;;;;10.17;5.30;;;;;;;;;;5057574;28;20449;-66
2021/01/21 09:49:41;;;;;;;8.23;5.20;;;;;;;;;;5056990;28;20456;-67
2021/01/21 09:52:08;;;;;;;6.20;5.17;;;;;;;;;;5060638;28;20485;-68
2021/01/21 09:54:36;;;;;;;9.77;5.73;;;;;;;;;;5057907;28;20466;-67
2021/01/21 09:57:03;;;;;;;7.13;4.83;;;;;;;;;;5066904;28;20498;-68
2021/01/21 09:59:29;;;;;;;8.33;6.70;;;;;;;;;;5060032;28;22744;-65
2021/01/21 10:01:56;;;;;;;9.60;6.80;;;;;;;;;;5057589;28;20595;-67
2021/01/21 10:04:23;;;;;;;6.87;5.07;;;;;;;;;;5056149;28;20469;-67
2021/01/21 10:06:49;;;;;;;7.07;5.20;;;;;;;;;;5054328;28;20546;-67
2021/01/21 10:09:16;;;;;;;8.07;5.77;;;;;;;;;;5052205;28;20465;-66
2021/01/21 10:11:43;;;;;;;5.70;4.90;;;;;;;;;;5054525;28;21101;-67
2021/01/21 10:14:10;;;;;;;11.80;6.83;;;;;;;;;;5060220;28;20477;-66
2021/01/21 10:16:36;;;;;;;7.90;5.20;;;;;;;;;;5059388;28;20467;-69
2021/01/21 10:19:04;;;;;;;9.37;5.50;;;;;;;;;;5058855;28;20467;-69
2021/01/21 10:21:30;;;;;;;8.90;4.87;;;;;;;;;;5058650;28;20484;-67
2021/01/21 10:23:57;;;;;;;8.27;5.30;;;;;;;;;;5060365;28;20461;-68
2021/01/21 10:26:24;;;;;;;7.40;5.13;;;;;;;;;;5055120;28;20458;-68
2021/01/21 10:28:51;;;;;;;7.00;5.80;;;;;;;;;;5062554;28;21303;-68
2021/01/21 10:31:18;;;;;;;6.80;5.10;;;;;;;;;;5055867;28;20487;-68
2021/01/21 10:33:45;;;;;;;5.73;4.67;;;;;;;;;;5064270;28;20754;-70
2021/01/21 10:36:12;;;;;;;10.43;5.87;;;;;;;;;;5061512;28;20537;-69
2021/01/21 10:38:39;;;;;;;17.93;5.80;;;;;;;;;;5060478;28;20503;-69
2021/01/21 10:41:05;;;;;;;7.30;5.53;;;;;;;;;;5060570;28;20650;-69
2021/01/21 10:43:32;;;;;;;7.07;5.47;;;;;;;;;;5068220;28;21024;-68
2021/01/21 10:45:59;;;;;;;49.87;44.40;;;;;;;;;;5071383;28;20842;-68
2021/01/21 10:48:26;;;;;;;7.40;5.30;;;;;;;;;;5064683;28;21231;-68
2021/01/21 10:50:53;;;;;;;6.70;4.90;;;;;;;;;;5070928;28;20522;-69
2021/01/21 10:53:20;;;;;;;6.57;4.43;;;;;;;;;;5066382;28;20472;-69
2021/01/21 10:55:46;;;;;;;7.63;5.60;;;;;;;;;;5065098;28;20444;-70
2021/01/21 10:58:14;;;;;;;116.37;68.97;;;;;;;;;;5065315;28;20463;-71
2021/01/21 11:00:41;;;;;;;5.47;4.10;;;;;;;;;;5065441;28;20460;-72
2021/01/21 11:03:08;;;;;;;4.67;4.03;;;;;;;;;;5073152;28;20445;-72
2021/01/21 11:05:35;;;;;;;4.57;3.73;;;;;;;;;;5068900;28;20460;-71
2021/01/21 11:08:02;;;;;;;5.37;4.20;;;;;;;;;;5063573;28;20464;-73
2021/01/21 11:10:29;;;;;;;8.80;6.13;;;;;;;;;;5062292;28;20477;-70
2021/01/21 11:12:55;;;;;;;7.47;4.43;;;;;;;;;;5070481;28;21282;-72
2021/01/21 11:15:23;;;;;;;30.50;8.53;;;;;;;;;;5063748;28;20461;-72
2021/01/21 11:17:50;;;;;;;4.70;4.13;;;;;;;;;;5064603;28;20544;-70
2021/01/21 11:20:18;;;;;;;5.20;3.90;;;;;;;;;;5070692;28;20468;-71
2021/01/21 11:22:44;;;;;;;8.33;3.80;;;;;;;;;;5058773;28;20810;-73
2021/01/21 11:25:11;;;;;;;22.70;6.57;;;;;;;;;;5064850;28;20457;-72
2021/01/21 11:27:38;;;;;;;5.13;3.77;;;;;;;;;;5069461;28;20477;-72
2021/01/21 11:30:06;;;;;;;7.43;4.17;;;;;;;;;;5071029;28;20451;-74
2021/01/21 11:32:32;;;;;;;4.23;3.67;;;;;;;;;;5069676;28;20485;-73
2021/01/21 11:34:59;;;;;;;7.03;3.50;;;;;;;;;;5070687;28;20471;-72
2021/01/21 11:37:27;;;;;;;6.60;3.63;;;;;;;;;;5067119;28;20472;-72
2021/01/21 11:39:54;;;;;;;3.33;3.03;;;;;;;;;;5063882;28;20446;-72
2021/01/21 11:42:20;;;;;;;4.87;3.77;;;;;;;;;;5073005;28;20454;-71
2021/01/21 11:44:47;;;;;;;4.27;3.50;;;;;;;;;;5064626;28;20456;-72
2021/01/21 11:47:14;;;;;;;5.73;3.73;;;;;;;;;;5076822;28;20446;-75
2021/01/21 11:49:40;;;;;;;5.63;3.20;;;;;;;;;;5078544;28;20541;-75
2021/01/21 11:52:07;;;;;;;4.83;3.17;;;;;;;;;;5072507;28;20481;-74
2021/01/21 11:54:35;;;;;;;5.53;3.50;;;;;;;;;;5072204;28;20467;-79
2021/01/21 11:57:01;;;;;;;3.77;3.37;;;;;;;;;;5077455;28;20453;-76
2021/01/21 11:59:28;;;;;;;6.50;3.50;;;;;;;;;;5076199;28;20460;-72
2021/01/21 12:01:54;;;;;;;8.93;3.80;;;;;;;;;;5067774;28;21300;-72
2021/01/21 12:04:21;;;;;;;5.17;3.23;;;;;;;;;;5062916;28;20446;-73
2021/01/21 12:06:48;;;;;;;7.40;4.10;;;;;;;;;;5071412;28;20457;-73
2021/01/21 12:09:15;;;;;;;9.20;4.20;;;;;;;;;;5059791;28;20468;-74
2021/01/21 12:11:42;;;;;;;5.63;3.57;;;;;;;;;;5066288;28;20491;-74
2021/01/21 12:14:09;;;;;;;5.00;3.60;;;;;;;;;;5074568;28;20481;-73
2021/01/21 12:16:35;;;;;;;14.00;4.90;;;;;;;;;;5071877;28;20463;-74
2021/01/21 12:19:02;;;;;;;5.53;3.80;;;;;;;;;;5069651;28;20452;-74
2021/01/21 12:21:33;;;;;;;8.97;4.03;;;;;;;;;;5074983;28;20497;-75
2021/01/21 12:24:00;;;;;;;5.27;3.93;;;;;;;;;;5072357;28;21240;-75
2021/01/21 12:26:26;;;;;;;6.03;3.67;;;;;;;;;;5071232;28;20487;-75
2021/01/21 12:28:54;;;;;;;4.13;3.13;;;;;;;;;;5076974;28;20454;-74
2021/01/21 12:31:20;;;;;;;4.23;3.27;;;;;;;;;;5071607;28;20486;-73
2021/01/21 12:33:47;;;;;;;6.43;3.30;;;;;;;;;;5067388;28;20482;-74
2021/01/21 12:36:14;;;;;;;5.60;2.93;;;;;;;;;;5068122;28;20441;-73
2021/01/21 12:38:40;;;;;;;3.90;3.50;;;;;;;;;;5060495;28;20461;-73
2021/01/21 12:41:07;;;;;;;5.20;2.87;;;;;;;;;;5065131;28;20480;-74
2021/01/21 12:43:33;;;;;;;4.73;3.53;;;;;;;;;;5067195;28;20464;-73
2021/01/21 12:46:01;;;;;;;5.70;3.57;;;;;;;;;;5070641;28;20478;-74
2021/01/21 12:48:27;;;;;;;3.33;2.13;;;;;;;;;;5068545;28;20494;-73
2021/01/21 12:50:55;;;;;;;3.77;2.80;;;;;;;;;;5063957;28;20465;-74
2021/01/21 12:53:21;;;;;;;6.80;3.10;;;;;;;;;;5067148;28;20491;-72
2021/01/21 12:55:48;;;;;;;5.83;2.60;;;;;;;;;;5066997;28;21159;-73
2021/01/21 12:58:14;;;;;;;5.60;2.60;;;;;;;;;;5066844;28;20452;-73
2021/01/21 13:00:41;;;;;;;3.40;2.30;;;;;;;;;;5062215;28;20468;-73
2021/01/21 13:03:08;;;;;;;2.93;2.57;;;;;;;;;;5059590;28;20442;-73
2021/01/21 13:05:35;;;;;;;3.50;2.23;;;;;;;;;;5061678;28;20453;-73
2021/01/21 13:08:02;;;;;;;3.73;3.03;;;;;;;;;;5059241;28;20977;-72
2021/01/21 13:10:28;;;;;;;3.10;1.90;;;;;;;;;;5068297;28;20457;-72
2021/01/21 13:12:55;;;;;;;6.33;2.30;;;;;;;;;;5060624;28;20503;-72
2021/01/21 13:15:21;;;;;;;3.17;2.10;;;;;;;;;;5066590;28;20442;-71
2021/01/21 13:17:48;;;;;;;5.57;2.37;;;;;;;;;;5055964;28;20453;-71
2021/01/21 13:20:16;;;;;;;2.20;1.60;;;;;;;;;;5058541;28;20484;-71
2021/01/21 13:22:42;;;;;;;4.73;2.10;;;;;;;;;;5055189;28;20965;-72
2021/01/21 13:25:09;;;;;;;1.67;1.50;;;;;;;;;;5053667;28;20449;-73
2021/01/21 13:27:36;;;;;;;3.70;2.03;;;;;;;;;;5059525;28;20460;-73
2021/01/21 13:30:03;;;;;;;2.57;1.63;;;;;;;;;;5061091;28;20450;-71
2021/01/21 13:32:30;;;;;;;4.53;1.80;;;;;;;;;;5053455;28;21305;-71
2021/01/21 13:34:56;;;;;;;3.10;2.00;;;;;;;;;;5062322;28;20453;-72
2021/01/21 13:37:24;;;;;;;3.03;1.80;;;;;;;;;;5058298;28;20532;-71
2021/01/21 13:39:50;;;;;;;2.40;2.00;;;;;;;;;;5060320;28;20518;-72
2021/01/21 13:42:17;;;;;;;4.40;2.10;;;;;;;;;;5057926;28;21170;-71
2021/01/21 13:44:44;;;;;;;2.27;1.87;;;;;;;;;;5062107;28;20489;-71
2021/01/21 13:47:10;;;;;;;5.57;2.30;;;;;;;;;;5052510;28;20446;-70
2021/01/21 13:49:37;;;;;;;2.90;1.93;;;;;;;;;;5055997;28;21194;-71
2021/01/21 13:52:04;;;;;;;3.40;1.60;;;;;;;;;;5057341;28;20486;-70
2021/01/21 13:54:31;;;;;;;2.37;1.80;;;;;;;;;;5056787;28;20480;-70
2021/01/21 13:56:58;;;;;;;3.77;2.30;;;;;;;;;;5052921;28;20456;-71
2021/01/21 13:59:24;;;;;;;3.67;2.10;;;;;;;;;;5055360;28;20461;-70
2021/01/21 14:01:51;;;;;;;2.83;1.87;;;;;;;;;;5055737;28;20473;-69
2021/01/21 14:04:18;;;;;;;3.80;1.60;;;;;;;;;;5055718;28;20465;-71
2021/01/21 14:06:44;;;;;;;2.87;1.87;;;;;;;;;;5062807;28;20498;-71
2021/01/21 14:09:11;;;;;;;2.00;1.60;;;;;;;;;;5054869;28;20593;-70
2021/01/21 14:11:38;;;;;;;2.40;1.87;;;;;;;;;;5056773;28;20871;-70
2021/01/21 14:14:05;;;;;;;2.20;1.97;;;;;;;;;;5050902;28;20480;-70
2021/01/21 14:16:31;;;;;;;2.50;1.70;;;;;;;;;;5077751;28;20451;-70
2021/01/21 14:18:58;;;;;;;3.03;2.00;;;;;;;;;;5054675;28;20461;-69
2021/01/21 14:21:25;;;;;;;2.57;2.00;;;;;;;;;;5064826;28;20479;-67
2021/01/21 14:23:51;;;;;;;3.40;2.00;;;;;;;;;;5053483;28;20461;-69
2021/01/21 14:26:18;;;;;;;3.37;2.37;;;;;;;;;;5062867;28;20463;-69
2021/01/21 14:28:46;;;;;;;5.20;2.13;;;;;;;;;;5062487;28;21082;-68
2021/01/21 14:31:12;;;;;;;4.00;2.70;;;;;;;;;;5063608;28;20465;-68